Terminal Aerodrome Forecast
Issued by NWS Boise, ID

Home | Current Version | Previous Version | Text Only | Print | Product List | Glossary On
Versions: 1 2 3 4 5 6 7 8 9 10 11 12
000
FTUS45 KBOI 241137
TAFBNO
TAF
KBNO 241137Z 2412/2512 00000KT 4SM -RA BR BKN015 OVC030
      TEMPO 2412/2415 VRB03KT P6SM -SHRA SCT030 BKN045 OVC080
     FM241800 13008KT P6SM FEW100 BKN250
      TEMPO 2509/2512 00000KT 6SM BR SKC=

USA.gov is the U.S. government's official web portal to all federal, state and local government web resources and services.